sensor_id;sensor_type;location;lat;lon;timestamp;temperature;humidity
40816;DHT22;26535;48.788;9.214;2022-11-20T00:00:08;5.30;99.90
40816;DHT22;26535;48.788;9.214;2022-11-20T07:01:31;6.60;99.90
40816;DHT22;26535;48.788;9.214;2022-11-20T07:03:57;6.50;99.90
40816;DHT22;26535;48.788;9.214;2022-11-20T07:06:22;6.50;99.90
40816;DHT22;26535;48.788;9.214;2022-11-20T07:08:50;6.50;99.90
40816;DHT22;26535;48.788;9.214;2022-11-20T07:11:17;6.50;99.90
40816;DHT22;26535;48.788;9.214;2022-11-20T07:13:43;6.50;99.90
40816;DHT22;26535;48.788;9.214;2022-11-20T07:16:09;6.50;99.90
40816;DHT22;26535;48.788;9.214;2022-11-20T07:18:35;6.60;99.90
40816;DHT22;26535;48.788;9.214;2022-11-20T07:21:06;6.60;99.90
40816;DHT22;26535;48.788;9.214;2022-11-20T07:23:33;6.70;99.90
40816;DHT22;26535;48.788;9.214;2022-11-20T07:26:07;6.70;99.90
40816;DHT22;26535;48.788;9.214;2022-11-20T07:28:33;6.70;99.90
40816;DHT22;26535;48.788;9.214;2022-11-20T07:30:59;6.80;99.90
40816;DHT22;26535;48.788;9.214;2022-11-20T07:33:25;6.80;99.90
40816;DHT22;26535;48.788;9.214;2022-11-20T07:35:51;6.80;99.90
40816;DHT22;26535;48.788;9.214;2022-11-20T07:38:17;6.90;99.90
40816;DHT22;26535;48.788;9.214;2022-11-20T07:40:42;6.90;99.90
40816;DHT22;26535;48.788;9.214;2022-11-20T07:43:08;6.90;99.90
40816;DHT22;26535;48.788;9.214;2022-11-20T07:45:34;6.90;99.90
40816;DHT22;26535;48.788;9.214;2022-11-20T07:48:00;6.90;99.90
40816;DHT22;26535;48.788;9.214;2022-11-20T07:50:26;7.00;99.90
40816;DHT22;26535;48.788;9.214;2022-11-20T07:52:52;7.20;99.90
40816;DHT22;26535;48.788;9.214;2022-11-20T07:55:25;7.30;99.90
40816;DHT22;26535;48.788;9.214;2022-11-20T07:57:54;7.40;99.90
40816;DHT22;26535;48.788;9.214;2022-11-20T08:00:21;7.40;99.90
40816;DHT22;26535;48.788;9.214;2022-11-20T08:02:47;7.40;99.90
40816;DHT22;26535;48.788;9.214;2022-11-20T08:05:18;7.40;99.90
40816;DHT22;26535;48.788;9.214;2022-11-20T08:07:44;7.40;99.90
40816;DHT22;26535;48.788;9.214;2022-11-20T08:10:15;7.50;99.90
40816;DHT22;26535;48.788;9.214;2022-11-20T08:12:48;7.60;99.90
40816;DHT22;26535;48.788;9.214;2022-11-20T08:15:40;7.60;99.90
40816;DHT22;26535;48.788;9.214;2022-11-20T08:18:08;7.70;99.90
40816;DHT22;26535;48.788;9.214;2022-11-20T08:20:41;7.70;99.90
40816;DHT22;26535;48.788;9.214;2022-11-20T08:23:07;7.70;99.90
40816;DHT22;26535;48.788;9.214;2022-11-20T08:25:34;7.80;99.90
40816;DHT22;26535;48.788;9.214;2022-11-20T08:28:02;7.80;99.90
40816;DHT22;26535;48.788;9.214;2022-11-20T08:30:29;7.80;99.90
40816;DHT22;26535;48.788;9.214;2022-11-20T08:33:30;7.80;99.90
40816;DHT22;26535;48.788;9.214;2022-11-20T08:36:23;7.90;99.90
40816;DHT22;26535;48.788;9.214;2022-11-20T08:44:34;8.00;99.90
40816;DHT22;26535;48.788;9.214;2022-11-20T08:47:02;8.00;99.90
40816;DHT22;26535;48.788;9.214;2022-11-20T08:49:42;8.10;99.90
40816;DHT22;26535;48.788;9.214;2022-11-20T08:52:12;8.30;99.90
40816;DHT22;26535;48.788;9.214;2022-11-20T08:54:38;8.40;99.90
40816;DHT22;26535;48.788;9.214;2022-11-20T08:57:03;8.60;99.90
40816;DHT22;26535;48.788;9.214;2022-11-20T08:59:48;8.70;99.90
40816;DHT22;26535;48.788;9.214;2022-11-20T09:02:14;8.80;99.90
40816;DHT22;26535;48.788;9.214;2022-11-20T09:04:43;8.80;99.90
40816;DHT22;26535;48.788;9.214;2022-11-20T09:07:11;8.80;99.90
40816;DHT22;26535;48.788;9.214;2022-11-20T09:09:37;8.80;99.90
40816;DHT22;26535;48.788;9.214;2022-11-20T09:12:03;8.80;99.90
40816;DHT22;26535;48.788;9.214;2022-11-20T09:14:29;8.80;99.90
40816;DHT22;26535;48.788;9.214;2022-11-20T09:17:04;8.70;99.90
40816;DHT22;26535;48.788;9.214;2022-11-20T09:19:57;8.70;99.90
40816;DHT22;26535;48.788;9.214;2022-11-20T09:22:24;8.70;99.90
40816;DHT22;26535;48.788;9.214;2022-11-20T09:25:19;8.60;99.90
40816;DHT22;26535;48.788;9.214;2022-11-20T09:30:35;8.70;99.90
40816;DHT22;26535;48.788;9.214;2022-11-20T09:33:01;8.70;99.90
40816;DHT22;26535;48.788;9.214;2022-11-20T09:35:26;8.70;99.90
40816;DHT22;26535;48.788;9.214;2022-11-20T09:37:52;8.80;99.90
40816;DHT22;26535;48.788;9.214;2022-11-20T09:40:26;8.90;99.90
40816;DHT22;26535;48.788;9.214;2022-11-20T09:48:44;8.90;99.90
40816;DHT22;26535;48.788;9.214;2022-11-20T09:54:04;8.70;99.90
40816;DHT22;26535;48.788;9.214;2022-11-20T09:56:54;8.90;99.90
40816;DHT22;26535;48.788;9.214;2022-11-20T09:59:59;8.90;99.90
40816;DHT22;26535;48.788;9.214;2022-11-20T10:05:27;9.00;99.90
40816;DHT22;26535;48.788;9.214;2022-11-20T10:14:23;8.80;99.90
40816;DHT22;26535;48.788;9.214;2022-11-20T10:26:03;8.50;99.90
40816;DHT22;26535;48.788;9.214;2022-11-20T10:46:39;7.60;99.90
40816;DHT22;26535;48.788;9.214;2022-11-20T10:49:20;7.50;99.90
40816;DHT22;26535;48.788;9.214;2022-11-20T10:55:13;7.50;99.90
40816;DHT22;26535;48.788;9.214;2022-11-20T10:58:29;7.20;99.90
40816;DHT22;26535;48.788;9.214;2022-11-20T11:01:22;7.10;99.90
40816;DHT22;26535;48.788;9.214;2022-11-20T11:03:53;7.10;99.90
40816;DHT22;26535;48.788;9.214;2022-11-20T11:06:36;7.10;99.90
40816;DHT22;26535;48.788;9.214;2022-11-20T11:09:17;7.30;99.90
40816;DHT22;26535;48.788;9.214;2022-11-20T11:11:46;7.40;99.90
40816;DHT22;26535;48.788;9.214;2022-11-20T11:14:15;7.50;99.90
40816;DHT22;26535;48.788;9.214;2022-11-20T11:17:04;7.50;99.90
40816;DHT22;26535;48.788;9.214;2022-11-20T11:19:39;7.50;99.90
40816;DHT22;26535;48.788;9.214;2022-11-20T11:22:11;7.50;99.90
40816;DHT22;26535;48.788;9.214;2022-11-20T11:24:52;7.60;99.90
40816;DHT22;26535;48.788;9.214;2022-11-20T11:27:18;7.70;99.90
40816;DHT22;26535;48.788;9.214;2022-11-20T11:29:44;7.70;99.90
40816;DHT22;26535;48.788;9.214;2022-11-20T11:32:21;7.90;99.90
40816;DHT22;26535;48.788;9.214;2022-11-20T11:35:02;8.20;99.90
40816;DHT22;26535;48.788;9.214;2022-11-20T11:37:36;9.60;99.90
40816;DHT22;26535;48.788;9.214;2022-11-20T11:40:04;10.80;99.90
40816;DHT22;26535;48.788;9.214;2022-11-20T11:42:31;11.90;99.90
40816;DHT22;26535;48.788;9.214;2022-11-20T11:44:59;12.70;99.90
40816;DHT22;26535;48.788;9.214;2022-11-20T11:47:47;13.60;99.90
40816;DHT22;26535;48.788;9.214;2022-11-20T11:50:28;14.30;99.90
40816;DHT22;26535;48.788;9.214;2022-11-20T11:53:12;14.80;99.90
40816;DHT22;26535;48.788;9.214;2022-11-20T12:07:00;18.30;94.30
40816;DHT22;26535;48.788;9.214;2022-11-20T12:09:37;19.00;92.20
40816;DHT22;26535;48.788;9.214;2022-11-20T12:12:12;18.20;91.80
40816;DHT22;26535;48.788;9.214;2022-11-20T12:14:44;16.80;92.50
40816;DHT22;26535;48.788;9.214;2022-11-20T12:17:12;15.80;92.80
40816;DHT22;26535;48.788;9.214;2022-11-20T12:19:38;14.20;94.00
40816;DHT22;26535;48.788;9.214;2022-11-20T12:22:45;13.10;95.40
40816;DHT22;26535;48.788;9.214;2022-11-20T12:25:30;12.00;97.30
40816;DHT22;26535;48.788;9.214;2022-11-20T12:30:28;11.50;98.90
40816;DHT22;26535;48.788;9.214;2022-11-20T12:35:42;14.10;96.60
40816;DHT22;26535;48.788;9.214;2022-11-20T12:44:41;15.40;92.90
40816;DHT22;26535;48.788;9.214;2022-11-20T12:50:28;14.10;91.70
40816;DHT22;26535;48.788;9.214;2022-11-20T12:53:05;14.30;91.90
40816;DHT22;26535;48.788;9.214;2022-11-20T13:06:52;13.90;90.40
40816;DHT22;26535;48.788;9.214;2022-11-20T13:09:29;14.00;90.80
40816;DHT22;26535;48.788;9.214;2022-11-20T13:15:00;13.90;91.60
40816;DHT22;26535;48.788;9.214;2022-11-20T13:17:51;13.80;90.40
40816;DHT22;26535;48.788;9.214;2022-11-20T13:20:20;13.10;91.00
40816;DHT22;26535;48.788;9.214;2022-11-20T13:22:56;12.50;92.20
40816;DHT22;26535;48.788;9.214;2022-11-20T13:25:51;12.30;92.70
40816;DHT22;26535;48.788;9.214;2022-11-20T13:28:38;11.80;92.80
40816;DHT22;26535;48.788;9.214;2022-11-20T13:31:32;11.50;92.80
40816;DHT22;26535;48.788;9.214;2022-11-20T13:34:01;11.70;93.10
40816;DHT22;26535;48.788;9.214;2022-11-20T13:36:30;12.10;92.50
40816;DHT22;26535;48.788;9.214;2022-11-20T13:38:58;12.10;92.60
40816;DHT22;26535;48.788;9.214;2022-11-20T13:41:36;12.60;93.10
40816;DHT22;26535;48.788;9.214;2022-11-20T13:46:51;13.20;91.40
40816;DHT22;26535;48.788;9.214;2022-11-20T13:49:25;12.80;91.50
40816;DHT22;26535;48.788;9.214;2022-11-20T13:59:05;11.20;93.40
40816;DHT22;26535;48.788;9.214;2022-11-20T14:01:51;10.70;93.60
40816;DHT22;26535;48.788;9.214;2022-11-20T14:04:49;10.40;94.60
40816;DHT22;26535;48.788;9.214;2022-11-20T14:07:39;10.30;95.80
40816;DHT22;26535;48.788;9.214;2022-11-20T14:10:06;10.30;96.50
40816;DHT22;26535;48.788;9.214;2022-11-20T14:12:43;10.60;97.90
40816;DHT22;26535;48.788;9.214;2022-11-20T14:15:33;10.90;97.40
40816;DHT22;26535;48.788;9.214;2022-11-20T14:18:34;10.90;96.60
40816;DHT22;26535;48.788;9.214;2022-11-20T14:21:03;10.40;97.20
40816;DHT22;26535;48.788;9.214;2022-11-20T14:23:29;10.50;97.60
40816;DHT22;26535;48.788;9.214;2022-11-20T14:25:55;10.20;97.90
40816;DHT22;26535;48.788;9.214;2022-11-20T14:28:29;10.00;98.70
40816;DHT22;26535;48.788;9.214;2022-11-20T14:30:56;9.90;98.60
40816;DHT22;26535;48.788;9.214;2022-11-20T14:33:24;9.80;99.20
40816;DHT22;26535;48.788;9.214;2022-11-20T14:35:55;9.60;99.30
40816;DHT22;26535;48.788;9.214;2022-11-20T14:38:25;9.50;99.80
40816;DHT22;26535;48.788;9.214;2022-11-20T14:40:51;9.50;99.90
40816;DHT22;26535;48.788;9.214;2022-11-20T14:43:23;9.50;99.90
40816;DHT22;26535;48.788;9.214;2022-11-20T14:46:08;9.40;99.90
40816;DHT22;26535;48.788;9.214;2022-11-20T14:48:49;9.40;99.90
40816;DHT22;26535;48.788;9.214;2022-11-20T14:51:30;9.40;99.90
40816;DHT22;26535;48.788;9.214;2022-11-20T14:53:56;9.20;99.90
40816;DHT22;26535;48.788;9.214;2022-11-20T14:56:24;9.10;99.90
40816;DHT22;26535;48.788;9.214;2022-11-20T14:58:57;9.10;99.90
40816;DHT22;26535;48.788;9.214;2022-11-20T15:01:28;9.00;99.90
40816;DHT22;26535;48.788;9.214;2022-11-20T15:04:10;8.90;99.90
40816;DHT22;26535;48.788;9.214;2022-11-20T15:06:37;8.80;99.90
40816;DHT22;26535;48.788;9.214;2022-11-20T15:09:04;8.80;99.90
40816;DHT22;26535;48.788;9.214;2022-11-20T15:11:34;8.70;99.90
40816;DHT22;26535;48.788;9.214;2022-11-20T15:14:06;8.70;99.90
40816;DHT22;26535;48.788;9.214;2022-11-20T15:16:32;8.60;99.90
40816;DHT22;26535;48.788;9.214;2022-11-20T15:18:58;8.50;99.90
40816;DHT22;26535;48.788;9.214;2022-11-20T15:21:24;8.40;99.90
40816;DHT22;26535;48.788;9.214;2022-11-20T15:23:50;8.30;99.90
40816;DHT22;26535;48.788;9.214;2022-11-20T15:26:25;8.20;99.90
40816;DHT22;26535;48.788;9.214;2022-11-20T15:28:52;8.10;99.90
40816;DHT22;26535;48.788;9.214;2022-11-20T15:31:20;8.00;99.90
40816;DHT22;26535;48.788;9.214;2022-11-20T15:33:46;7.90;99.90
40816;DHT22;26535;48.788;9.214;2022-11-20T15:36:12;7.80;99.90
40816;DHT22;26535;48.788;9.214;2022-11-20T15:38:38;7.80;99.90
40816;DHT22;26535;48.788;9.214;2022-11-20T15:41:05;7.70;99.90
40816;DHT22;26535;48.788;9.214;2022-11-20T15:43:30;7.70;99.90
40816;DHT22;26535;48.788;9.214;2022-11-20T15:46:14;7.50;99.90
40816;DHT22;26535;48.788;9.214;2022-11-20T15:48:44;7.50;99.90
40816;DHT22;26535;48.788;9.214;2022-11-20T15:53:37;7.30;99.90
40816;DHT22;26535;48.788;9.214;2022-11-20T15:56:14;7.30;99.90
40816;DHT22;26535;48.788;9.214;2022-11-20T15:58:40;7.20;99.90
40816;DHT22;26535;48.788;9.214;2022-11-20T16:01:15;7.10;99.90
40816;DHT22;26535;48.788;9.214;2022-11-20T16:03:41;7.10;99.90
40816;DHT22;26535;48.788;9.214;2022-11-20T16:06:07;7.10;99.90
40816;DHT22;26535;48.788;9.214;2022-11-20T16:08:33;7.10;99.90
40816;DHT22;26535;48.788;9.214;2022-11-20T16:10:59;7.10;99.90
40816;DHT22;26535;48.788;9.214;2022-11-20T16:13:25;7.10;99.90
40816;DHT22;26535;48.788;9.214;2022-11-20T16:16:22;7.00;99.90
40816;DHT22;26535;48.788;9.214;2022-11-20T16:18:49;7.00;99.90
40816;DHT22;26535;48.788;9.214;2022-11-20T16:21:15;7.00;99.90
40816;DHT22;26535;48.788;9.214;2022-11-20T16:23:41;7.00;99.90
40816;DHT22;26535;48.788;9.214;2022-11-20T16:26:15;7.00;99.90
40816;DHT22;26535;48.788;9.214;2022-11-20T16:28:48;7.00;99.90
40816;DHT22;26535;48.788;9.214;2022-11-20T16:31:18;7.10;99.90
40816;DHT22;26535;48.788;9.214;2022-11-20T16:33:52;7.10;99.90
40816;DHT22;26535;48.788;9.214;2022-11-20T16:36:19;7.10;99.90
40816;DHT22;26535;48.788;9.214;2022-11-20T16:38:45;7.20;99.90
40816;DHT22;26535;48.788;9.214;2022-11-20T16:41:11;7.20;99.90
40816;DHT22;26535;48.788;9.214;2022-11-20T16:43:53;7.20;99.90
40816;DHT22;26535;48.788;9.214;2022-11-20T16:46:29;7.30;99.90
40816;DHT22;26535;48.788;9.214;2022-11-20T16:49:04;7.30;99.90
40816;DHT22;26535;48.788;9.214;2022-11-20T16:51:33;7.20;99.90
40816;DHT22;26535;48.788;9.214;2022-11-20T16:54:07;7.30;99.90
40816;DHT22;26535;48.788;9.214;2022-11-20T16:56:34;7.30;99.90
40816;DHT22;26535;48.788;9.214;2022-11-20T16:59:00;7.30;99.90
40816;DHT22;26535;48.788;9.214;2022-11-20T17:01:33;7.30;99.90
40816;DHT22;26535;48.788;9.214;2022-11-20T17:04:02;7.30;99.90
40816;DHT22;26535;48.788;9.214;2022-11-20T17:06:30;7.30;99.90
40816;DHT22;26535;48.788;9.214;2022-11-20T17:09:16;7.30;99.90
40816;DHT22;26535;48.788;9.214;2022-11-20T17:11:42;7.30;99.90
40816;DHT22;26535;48.788;9.214;2022-11-20T17:14:43;7.30;99.90
40816;DHT22;26535;48.788;9.214;2022-11-20T17:17:10;7.40;99.90
40816;DHT22;26535;48.788;9.214;2022-11-20T17:19:39;7.40;99.90
40816;DHT22;26535;48.788;9.214;2022-11-20T17:22:14;7.40;99.90
40816;DHT22;26535;48.788;9.214;2022-11-20T18:07:56;7.70;99.90
40816;DHT22;26535;48.788;9.214;2022-11-20T18:10:43;7.70;99.90
40816;DHT22;26535;48.788;9.214;2022-11-20T18:13:12;7.70;99.90
40816;DHT22;26535;48.788;9.214;2022-11-20T18:15:43;7.70;99.90
40816;DHT22;26535;48.788;9.214;2022-11-20T18:18:34;7.70;99.90
40816;DHT22;26535;48.788;9.214;2022-11-20T18:21:00;7.70;99.90
40816;DHT22;26535;48.788;9.214;2022-11-20T18:23:25;7.70;99.90
40816;DHT22;26535;48.788;9.214;2022-11-20T18:25:51;7.70;99.90
40816;DHT22;26535;48.788;9.214;2022-11-20T18:28:19;7.70;99.90
40816;DHT22;26535;48.788;9.214;2022-11-20T18:30:51;7.80;99.90
40816;DHT22;26535;48.788;9.214;2022-11-20T18:33:17;7.80;99.90
40816;DHT22;26535;48.788;9.214;2022-11-20T18:35:43;7.80;99.90
40816;DHT22;26535;48.788;9.214;2022-11-20T18:38:11;7.80;99.90
40816;DHT22;26535;48.788;9.214;2022-11-20T18:40:49;7.80;99.90
40816;DHT22;26535;48.788;9.214;2022-11-20T18:43:18;7.70;99.90
40816;DHT22;26535;48.788;9.214;2022-11-20T18:46:07;7.70;99.90
40816;DHT22;26535;48.788;9.214;2022-11-20T18:48:32;7.70;99.90
40816;DHT22;26535;48.788;9.214;2022-11-20T18:51:07;7.70;99.90
40816;DHT22;26535;48.788;9.214;2022-11-20T18:53:36;7.60;99.90
40816;DHT22;26535;48.788;9.214;2022-11-20T18:56:03;7.60;99.90
40816;DHT22;26535;48.788;9.214;2022-11-20T18:58:29;7.50;99.90
40816;DHT22;26535;48.788;9.214;2022-11-20T19:00:55;7.30;99.90
40816;DHT22;26535;48.788;9.214;2022-11-20T19:03:21;7.20;99.90
40816;DHT22;26535;48.788;9.214;2022-11-20T19:05:47;7.10;99.90
40816;DHT22;26535;48.788;9.214;2022-11-20T19:08:12;7.00;99.90
40816;DHT22;26535;48.788;9.214;2022-11-20T19:10:44;6.90;99.90
40816;DHT22;26535;48.788;9.214;2022-11-20T19:13:10;6.90;99.90
40816;DHT22;26535;48.788;9.214;2022-11-20T19:15:35;6.90;99.90
40816;DHT22;26535;48.788;9.214;2022-11-20T19:18:03;6.90;99.90
40816;DHT22;26535;48.788;9.214;2022-11-20T19:20:29;6.90;99.90
40816;DHT22;26535;48.788;9.214;2022-11-20T19:22:58;6.80;99.90
40816;DHT22;26535;48.788;9.214;2022-11-20T19:25:29;6.70;99.90
40816;DHT22;26535;48.788;9.214;2022-11-20T19:27:55;6.70;99.90
40816;DHT22;26535;48.788;9.214;2022-11-20T19:30:21;6.60;99.90
40816;DHT22;26535;48.788;9.214;2022-11-20T19:32:47;6.60;99.90
40816;DHT22;26535;48.788;9.214;2022-11-20T19:35:13;6.50;99.90
40816;DHT22;26535;48.788;9.214;2022-11-20T19:37:38;6.50;99.90
40816;DHT22;26535;48.788;9.214;2022-11-20T19:40:05;6.50;99.90
40816;DHT22;26535;48.788;9.214;2022-11-20T19:42:31;6.50;99.90
40816;DHT22;26535;48.788;9.214;2022-11-20T19:44:56;6.50;99.90
40816;DHT22;26535;48.788;9.214;2022-11-20T19:47:23;6.50;99.90
40816;DHT22;26535;48.788;9.214;2022-11-20T19:49:49;6.60;99.90
40816;DHT22;26535;48.788;9.214;2022-11-20T19:52:14;6.70;99.90
40816;DHT22;26535;48.788;9.214;2022-11-20T19:54:40;6.60;99.90
40816;DHT22;26535;48.788;9.214;2022-11-20T19:57:08;6.60;99.90
40816;DHT22;26535;48.788;9.214;2022-11-20T19:59:34;6.60;99.90
40816;DHT22;26535;48.788;9.214;2022-11-20T20:02:00;6.60;99.90
40816;DHT22;26535;48.788;9.214;2022-11-20T20:04:27;6.60;99.90
40816;DHT22;26535;48.788;9.214;2022-11-20T20:06:54;6.60;99.90
40816;DHT22;26535;48.788;9.214;2022-11-20T20:09:20;6.60;99.90
40816;DHT22;26535;48.788;9.214;2022-11-20T20:11:48;6.50;99.90
40816;DHT22;26535;48.788;9.214;2022-11-20T20:14:15;6.50;99.90
40816;DHT22;26535;48.788;9.214;2022-11-20T20:16:41;6.50;99.90
40816;DHT22;26535;48.788;9.214;2022-11-20T20:19:11;6.50;99.90
40816;DHT22;26535;48.788;9.214;2022-11-20T20:21:37;6.50;99.90
40816;DHT22;26535;48.788;9.214;2022-11-20T20:24:03;6.50;99.90
40816;DHT22;26535;48.788;9.214;2022-11-20T20:26:30;6.50;99.90
40816;DHT22;26535;48.788;9.214;2022-11-20T20:28:56;6.50;99.90
40816;DHT22;26535;48.788;9.214;2022-11-20T20:31:24;6.50;99.90
40816;DHT22;26535;48.788;9.214;2022-11-20T20:33:54;6.50;99.90
40816;DHT22;26535;48.788;9.214;2022-11-20T20:36:20;6.50;99.90
40816;DHT22;26535;48.788;9.214;2022-11-20T20:38:51;6.50;99.90
40816;DHT22;26535;48.788;9.214;2022-11-20T20:41:19;6.40;99.90
40816;DHT22;26535;48.788;9.214;2022-11-20T20:43:45;6.40;99.90
40816;DHT22;26535;48.788;9.214;2022-11-20T20:46:29;6.40;99.90
40816;DHT22;26535;48.788;9.214;2022-11-20T20:48:55;6.30;99.90
40816;DHT22;26535;48.788;9.214;2022-11-20T20:51:22;6.40;99.90
40816;DHT22;26535;48.788;9.214;2022-11-20T20:53:48;6.40;99.90
40816;DHT22;26535;48.788;9.214;2022-11-20T20:56:14;6.30;99.90
40816;DHT22;26535;48.788;9.214;2022-11-20T20:58:40;6.30;99.90
40816;DHT22;26535;48.788;9.214;2022-11-20T21:01:08;6.20;99.90
40816;DHT22;26535;48.788;9.214;2022-11-20T21:03:34;6.10;99.90
40816;DHT22;26535;48.788;9.214;2022-11-20T21:06:02;6.10;99.90
40816;DHT22;26535;48.788;9.214;2022-11-20T21:08:28;6.00;99.90
40816;DHT22;26535;48.788;9.214;2022-11-20T21:10:59;6.10;99.90
40816;DHT22;26535;48.788;9.214;2022-11-20T21:13:26;6.00;99.90
40816;DHT22;26535;48.788;9.214;2022-11-20T21:15:51;6.10;99.90
40816;DHT22;26535;48.788;9.214;2022-11-20T21:18:19;6.10;99.90
40816;DHT22;26535;48.788;9.214;2022-11-20T21:20:46;6.10;99.90
40816;DHT22;26535;48.788;9.214;2022-11-20T21:23:31;6.20;99.90
40816;DHT22;26535;48.788;9.214;2022-11-20T21:26:02;6.20;99.90
40816;DHT22;26535;48.788;9.214;2022-11-20T21:28:30;6.20;99.90
40816;DHT22;26535;48.788;9.214;2022-11-20T21:31:10;6.30;99.90
40816;DHT22;26535;48.788;9.214;2022-11-20T21:33:41;6.20;99.90
40816;DHT22;26535;48.788;9.214;2022-11-20T21:36:12;6.10;99.90
40816;DHT22;26535;48.788;9.214;2022-11-20T21:38:38;5.90;99.90
40816;DHT22;26535;48.788;9.214;2022-11-20T21:41:06;5.80;99.90
40816;DHT22;26535;48.788;9.214;2022-11-20T21:43:32;5.80;99.90
40816;DHT22;26535;48.788;9.214;2022-11-20T21:46:02;5.80;99.90
40816;DHT22;26535;48.788;9.214;2022-11-20T21:48:30;5.70;99.90
40816;DHT22;26535;48.788;9.214;2022-11-20T21:51:04;5.80;99.90
40816;DHT22;26535;48.788;9.214;2022-11-20T21:53:36;5.70;99.90
40816;DHT22;26535;48.788;9.214;2022-11-20T21:56:07;5.70;99.90
40816;DHT22;26535;48.788;9.214;2022-11-20T21:58:35;5.70;99.90
40816;DHT22;26535;48.788;9.214;2022-11-20T22:01:19;5.80;99.90
40816;DHT22;26535;48.788;9.214;2022-11-20T22:03:53;5.70;99.90
40816;DHT22;26535;48.788;9.214;2022-11-20T22:06:25;5.70;99.90
40816;DHT22;26535;48.788;9.214;2022-11-20T22:08:52;5.60;99.90
40816;DHT22;26535;48.788;9.214;2022-11-20T22:11:20;5.70;99.90
40816;DHT22;26535;48.788;9.214;2022-11-20T22:13:46;5.70;99.90
40816;DHT22;26535;48.788;9.214;2022-11-20T22:16:35;5.80;99.90
40816;DHT22;26535;48.788;9.214;2022-11-20T22:19:01;5.90;99.90
40816;DHT22;26535;48.788;9.214;2022-11-20T22:21:28;5.90;99.90
40816;DHT22;26535;48.788;9.214;2022-11-20T22:23:58;6.00;99.90
40816;DHT22;26535;48.788;9.214;2022-11-20T22:26:29;6.00;99.90
40816;DHT22;26535;48.788;9.214;2022-11-20T22:28:56;6.10;99.90
40816;DHT22;26535;48.788;9.214;2022-11-20T22:31:24;6.10;99.90
40816;DHT22;26535;48.788;9.214;2022-11-20T22:33:50;6.10;99.90
40816;DHT22;26535;48.788;9.214;2022-11-20T22:36:18;6.20;99.90
40816;DHT22;26535;48.788;9.214;2022-11-20T22:38:44;6.20;99.90
40816;DHT22;26535;48.788;9.214;2022-11-20T22:41:18;6.30;99.90
40816;DHT22;26535;48.788;9.214;2022-11-20T22:43:45;6.30;99.90
40816;DHT22;26535;48.788;9.214;2022-11-20T22:48:42;6.20;99.90
40816;DHT22;26535;48.788;9.214;2022-11-20T22:51:13;6.20;99.90
40816;DHT22;26535;48.788;9.214;2022-11-20T22:53:40;6.10;99.90
40816;DHT22;26535;48.788;9.214;2022-11-20T22:56:07;6.10;99.90
40816;DHT22;26535;48.788;9.214;2022-11-20T22:58:35;6.00;99.90
40816;DHT22;26535;48.788;9.214;2022-11-20T23:03:33;5.90;99.90
40816;DHT22;26535;48.788;9.214;2022-11-20T23:05:59;5.90;99.90
40816;DHT22;26535;48.788;9.214;2022-11-20T23:08:25;5.80;99.90
40816;DHT22;26535;48.788;9.214;2022-11-20T23:10:51;5.80;99.90
40816;DHT22;26535;48.788;9.214;2022-11-20T23:13:17;5.90;99.90
40816;DHT22;26535;48.788;9.214;2022-11-20T23:15:43;6.00;99.90
40816;DHT22;26535;48.788;9.214;2022-11-20T23:18:08;6.00;99.90
40816;DHT22;26535;48.788;9.214;2022-11-20T23:20:35;6.00;99.90
40816;DHT22;26535;48.788;9.214;2022-11-20T23:23:01;6.10;99.90
40816;DHT22;26535;48.788;9.214;2022-11-20T23:25:27;6.20;99.90
40816;DHT22;26535;48.788;9.214;2022-11-20T23:27:53;6.20;99.90
40816;DHT22;26535;48.788;9.214;2022-11-20T23:30:19;6.20;99.90
40816;DHT22;26535;48.788;9.214;2022-11-20T23:32:45;6.20;99.90
40816;DHT22;26535;48.788;9.214;2022-11-20T23:35:11;6.20;99.90
40816;DHT22;26535;48.788;9.214;2022-11-20T23:37:37;6.20;99.90
40816;DHT22;26535;48.788;9.214;2022-11-20T23:40:03;6.20;99.90
40816;DHT22;26535;48.788;9.214;2022-11-20T23:42:29;6.10;99.90
40816;DHT22;26535;48.788;9.214;2022-11-20T23:44:55;6.00;99.90
40816;DHT22;26535;48.788;9.214;2022-11-20T23:47:21;6.00;99.90
40816;DHT22;26535;48.788;9.214;2022-11-20T23:49:47;6.10;99.90
40816;DHT22;26535;48.788;9.214;2022-11-20T23:52:13;6.20;99.90
40816;DHT22;26535;48.788;9.214;2022-11-20T23:54:41;6.20;99.90
40816;DHT22;26535;48.788;9.214;2022-11-20T23:57:07;6.20;99.90
40816;DHT22;26535;48.788;9.214;2022-11-20T23:59:32;6.20;99.90
